sensor_id;sensor_type;location;lat;lon;timestamp;P1;durP1;ratioP1;P2;durP2;ratioP2
23617;SDS011;18207;32.078;34.818;2023-04-24T00:00:38;1.35;;;1.35;;
23617;SDS011;18207;32.078;34.818;2023-04-24T00:03:11;1.25;;;1.25;;
23617;SDS011;18207;32.078;34.818;2023-04-24T00:05:42;1.63;;;1.52;;
23617;SDS011;18207;32.078;34.818;2023-04-24T00:08:14;1.50;;;1.40;;
23617;SDS011;18207;32.078;34.818;2023-04-24T00:10:44;1.40;;;1.30;;
23617;SDS011;18207;32.078;34.818;2023-04-24T00:13:15;1.30;;;1.20;;
23617;SDS011;18207;32.078;34.818;2023-04-24T00:15:45;1.60;;;1.50;;
23617;SDS011;18207;32.078;34.818;2023-04-24T00:18:15;1.60;;;1.50;;
23617;SDS011;18207;32.078;34.818;2023-04-24T00:20:46;1.48;;;1.38;;
23617;SDS011;18207;32.078;34.818;2023-04-24T00:23:18;1.40;;;1.40;;
23617;SDS011;18207;32.078;34.818;2023-04-24T00:25:48;1.40;;;1.30;;
23617;SDS011;18207;32.078;34.818;2023-04-24T00:28:18;1.75;;;1.65;;
23617;SDS011;18207;32.078;34.818;2023-04-24T00:30:48;1.67;;;1.58;;
23617;SDS011;18207;32.078;34.818;2023-04-24T00:33:18;1.70;;;1.60;;
23617;SDS011;18207;32.078;34.818;2023-04-24T00:35:49;1.65;;;1.55;;
23617;SDS011;18207;32.078;34.818;2023-04-24T00:38:20;1.77;;;1.67;;
23617;SDS011;18207;32.078;34.818;2023-04-24T00:40:50;1.50;;;1.40;;
23617;SDS011;18207;32.078;34.818;2023-04-24T00:43:20;1.50;;;1.40;;
23617;SDS011;18207;32.078;34.818;2023-04-24T00:45:51;1.60;;;1.50;;
23617;SDS011;18207;32.078;34.818;2023-04-24T00:48:21;1.52;;;1.45;;
23617;SDS011;18207;32.078;34.818;2023-04-24T00:50:54;1.50;;;1.40;;
23617;SDS011;18207;32.078;34.818;2023-04-24T00:53:27;1.83;;;1.73;;
23617;SDS011;18207;32.078;34.818;2023-04-24T00:55:57;1.70;;;1.60;;
23617;SDS011;18207;32.078;34.818;2023-04-24T00:58:28;1.70;;;1.60;;
23617;SDS011;18207;32.078;34.818;2023-04-24T01:00:59;1.65;;;1.60;;
23617;SDS011;18207;32.078;34.818;2023-04-24T01:03:29;1.83;;;1.70;;
23617;SDS011;18207;32.078;34.818;2023-04-24T01:06:00;1.73;;;1.63;;
23617;SDS011;18207;32.078;34.818;2023-04-24T01:08:32;1.70;;;1.60;;
23617;SDS011;18207;32.078;34.818;2023-04-24T01:11:04;1.65;;;1.55;;
23617;SDS011;18207;32.078;34.818;2023-04-24T01:13:34;1.80;;;1.70;;
23617;SDS011;18207;32.078;34.818;2023-04-24T01:16:05;1.80;;;1.70;;
23617;SDS011;18207;32.078;34.818;2023-04-24T01:18:34;1.83;;;1.73;;
23617;SDS011;18207;32.078;34.818;2023-04-24T01:21:05;2.00;;;1.90;;
23617;SDS011;18207;32.078;34.818;2023-04-24T01:23:39;1.70;;;1.60;;
23617;SDS011;18207;32.078;34.818;2023-04-24T01:26:09;1.70;;;1.60;;
23617;SDS011;18207;32.078;34.818;2023-04-24T01:28:41;2.47;;;1.80;;
23617;SDS011;18207;32.078;34.818;2023-04-24T01:31:11;2.03;;;1.92;;
23617;SDS011;18207;32.078;34.818;2023-04-24T01:33:42;1.88;;;1.77;;
23617;SDS011;18207;32.078;34.818;2023-04-24T01:36:12;1.92;;;1.83;;
23617;SDS011;18207;32.078;34.818;2023-04-24T01:38:47;2.13;;;2.00;;
23617;SDS011;18207;32.078;34.818;2023-04-24T01:41:16;2.03;;;1.92;;
23617;SDS011;18207;32.078;34.818;2023-04-24T01:43:47;1.85;;;1.75;;
23617;SDS011;18207;32.078;34.818;2023-04-24T01:46:18;2.03;;;1.88;;
23617;SDS011;18207;32.078;34.818;2023-04-24T01:48:49;2.10;;;1.90;;
23617;SDS011;18207;32.078;34.818;2023-04-24T01:51:20;2.17;;;1.98;;
23617;SDS011;18207;32.078;34.818;2023-04-24T01:53:52;1.95;;;1.85;;
23617;SDS011;18207;32.078;34.818;2023-04-24T01:56:22;2.03;;;1.88;;
23617;SDS011;18207;32.078;34.818;2023-04-24T01:58:53;1.98;;;1.88;;
23617;SDS011;18207;32.078;34.818;2023-04-24T02:01:24;2.78;;;2.10;;
23617;SDS011;18207;32.078;34.818;2023-04-24T02:03:54;2.05;;;1.95;;
23617;SDS011;18207;32.078;34.818;2023-04-24T02:06:24;2.00;;;1.90;;
23617;SDS011;18207;32.078;34.818;2023-04-24T02:08:56;2.05;;;1.92;;
23617;SDS011;18207;32.078;34.818;2023-04-24T02:11:27;2.20;;;2.00;;
23617;SDS011;18207;32.078;34.818;2023-04-24T02:13:57;2.30;;;2.10;;
23617;SDS011;18207;32.078;34.818;2023-04-24T02:16:27;2.33;;;2.13;;
23617;SDS011;18207;32.078;34.818;2023-04-24T02:18:59;2.03;;;1.92;;
23617;SDS011;18207;32.078;34.818;2023-04-24T02:21:30;1.95;;;1.85;;
23617;SDS011;18207;32.078;34.818;2023-04-24T02:24:02;2.20;;;2.00;;
23617;SDS011;18207;32.078;34.818;2023-04-24T02:26:32;2.30;;;2.10;;
23617;SDS011;18207;32.078;34.818;2023-04-24T02:29:02;2.28;;;2.08;;
23617;SDS011;18207;32.078;34.818;2023-04-24T02:31:32;2.05;;;1.90;;
23617;SDS011;18207;32.078;34.818;2023-04-24T02:34:02;2.00;;;1.90;;
23617;SDS011;18207;32.078;34.818;2023-04-24T02:36:32;2.10;;;1.95;;
23617;SDS011;18207;32.078;34.818;2023-04-24T02:39:04;1.85;;;1.75;;
23617;SDS011;18207;32.078;34.818;2023-04-24T02:41:35;1.98;;;1.88;;
23617;SDS011;18207;32.078;34.818;2023-04-24T02:44:05;2.30;;;2.10;;
23617;SDS011;18207;32.078;34.818;2023-04-24T02:46:35;2.05;;;1.95;;
23617;SDS011;18207;32.078;34.818;2023-04-24T02:49:05;2.17;;;1.98;;
23617;SDS011;18207;32.078;34.818;2023-04-24T02:51:35;2.30;;;2.10;;
23617;SDS011;18207;32.078;34.818;2023-04-24T02:54:09;1.90;;;1.80;;
23617;SDS011;18207;32.078;34.818;2023-04-24T02:56:39;1.92;;;1.83;;
23617;SDS011;18207;32.078;34.818;2023-04-24T02:59:10;2.17;;;1.92;;
23617;SDS011;18207;32.078;34.818;2023-04-24T03:01:40;2.30;;;2.10;;
23617;SDS011;18207;32.078;34.818;2023-04-24T03:04:10;2.38;;;2.17;;
23617;SDS011;18207;32.078;34.818;2023-04-24T03:06:40;2.30;;;2.10;;
23617;SDS011;18207;32.078;34.818;2023-04-24T03:09:12;2.17;;;1.98;;
23617;SDS011;18207;32.078;34.818;2023-04-24T03:11:41;2.33;;;2.15;;
23617;SDS011;18207;32.078;34.818;2023-04-24T03:14:12;2.28;;;2.08;;
23617;SDS011;18207;32.078;34.818;2023-04-24T03:16:42;2.15;;;1.95;;
23617;SDS011;18207;32.078;34.818;2023-04-24T03:19:12;2.35;;;2.25;;
23617;SDS011;18207;32.078;34.818;2023-04-24T03:21:42;2.17;;;1.98;;
23617;SDS011;18207;32.078;34.818;2023-04-24T03:24:15;2.00;;;1.90;;
23617;SDS011;18207;32.078;34.818;2023-04-24T03:26:45;2.30;;;2.10;;
23617;SDS011;18207;32.078;34.818;2023-04-24T03:29:15;1.83;;;1.73;;
23617;SDS011;18207;32.078;34.818;2023-04-24T03:31:45;2.08;;;1.98;;
23617;SDS011;18207;32.078;34.818;2023-04-24T03:34:15;2.22;;;2.10;;
23617;SDS011;18207;32.078;34.818;2023-04-24T03:36:46;2.03;;;1.92;;
23617;SDS011;18207;32.078;34.818;2023-04-24T03:39:17;2.72;;;2.25;;
23617;SDS011;18207;32.078;34.818;2023-04-24T03:41:48;2.58;;;2.33;;
23617;SDS011;18207;32.078;34.818;2023-04-24T03:44:18;2.45;;;2.25;;
23617;SDS011;18207;32.078;34.818;2023-04-24T03:46:48;2.08;;;1.88;;
23617;SDS011;18207;32.078;34.818;2023-04-24T03:49:18;2.15;;;1.95;;
23617;SDS011;18207;32.078;34.818;2023-04-24T03:51:48;2.03;;;1.92;;
23617;SDS011;18207;32.078;34.818;2023-04-24T03:54:21;2.50;;;2.30;;
23617;SDS011;18207;32.078;34.818;2023-04-24T03:56:51;2.42;;;2.22;;
23617;SDS011;18207;32.078;34.818;2023-04-24T03:59:21;2.47;;;2.28;;
23617;SDS011;18207;32.078;34.818;2023-04-24T04:01:51;1.98;;;1.88;;
23617;SDS011;18207;32.078;34.818;2023-04-24T04:04:21;2.10;;;2.00;;
23617;SDS011;18207;32.078;34.818;2023-04-24T04:06:52;2.35;;;2.17;;
23617;SDS011;18207;32.078;34.818;2023-04-24T04:09:24;2.17;;;1.90;;
23617;SDS011;18207;32.078;34.818;2023-04-24T04:11:53;2.10;;;1.90;;
23617;SDS011;18207;32.078;34.818;2023-04-24T04:14:23;2.00;;;1.90;;
23617;SDS011;18207;32.078;34.818;2023-04-24T04:16:54;2.70;;;2.03;;
23617;SDS011;18207;32.078;34.818;2023-04-24T04:19:24;2.25;;;2.05;;
23617;SDS011;18207;32.078;34.818;2023-04-24T04:21:54;3.05;;;2.10;;
23617;SDS011;18207;32.078;34.818;2023-04-24T04:24:26;2.30;;;2.15;;
23617;SDS011;18207;32.078;34.818;2023-04-24T04:26:56;2.25;;;2.08;;
23617;SDS011;18207;32.078;34.818;2023-04-24T04:29:27;2.10;;;2.00;;
23617;SDS011;18207;32.078;34.818;2023-04-24T04:31:58;2.20;;;2.10;;
23617;SDS011;18207;32.078;34.818;2023-04-24T04:34:29;2.20;;;2.00;;
23617;SDS011;18207;32.078;34.818;2023-04-24T04:37:00;2.22;;;2.10;;
23617;SDS011;18207;32.078;34.818;2023-04-24T04:39:32;2.03;;;1.85;;
23617;SDS011;18207;32.078;34.818;2023-04-24T04:42:02;2.63;;;2.03;;
23617;SDS011;18207;32.078;34.818;2023-04-24T04:44:33;2.30;;;2.10;;
23617;SDS011;18207;32.078;34.818;2023-04-24T04:47:05;1.88;;;1.77;;
23617;SDS011;18207;32.078;34.818;2023-04-24T04:49:35;1.90;;;1.80;;
23617;SDS011;18207;32.078;34.818;2023-04-24T04:52:07;1.80;;;1.70;;
23617;SDS011;18207;32.078;34.818;2023-04-24T04:54:38;1.80;;;1.70;;
23617;SDS011;18207;32.078;34.818;2023-04-24T04:57:08;2.10;;;1.90;;
23617;SDS011;18207;32.078;34.818;2023-04-24T04:59:38;1.70;;;1.60;;
23617;SDS011;18207;32.078;34.818;2023-04-24T05:02:10;1.70;;;1.60;;
23617;SDS011;18207;32.078;34.818;2023-04-24T05:04:40;1.75;;;1.58;;
23617;SDS011;18207;32.078;34.818;2023-04-24T05:07:10;1.73;;;1.63;;
23617;SDS011;18207;32.078;34.818;2023-04-24T05:09:41;1.60;;;1.50;;
23617;SDS011;18207;32.078;34.818;2023-04-24T05:12:11;1.50;;;1.40;;
23617;SDS011;18207;32.078;34.818;2023-04-24T05:14:41;1.20;;;1.10;;
23617;SDS011;18207;32.078;34.818;2023-04-24T05:17:12;0.82;;;0.82;;
23617;SDS011;18207;32.078;34.818;2023-04-24T05:19:42;0.98;;;0.98;;
23617;SDS011;18207;32.078;34.818;2023-04-24T05:22:13;1.13;;;1.08;;
23617;SDS011;18207;32.078;34.818;2023-04-24T05:24:46;1.50;;;1.40;;
23617;SDS011;18207;32.078;34.818;2023-04-24T05:27:16;1.23;;;1.23;;
23617;SDS011;18207;32.078;34.818;2023-04-24T05:29:46;1.60;;;1.45;;
23617;SDS011;18207;32.078;34.818;2023-04-24T05:32:16;1.02;;;1.02;;
23617;SDS011;18207;32.078;34.818;2023-04-24T05:34:46;1.25;;;1.20;;
23617;SDS011;18207;32.078;34.818;2023-04-24T05:37:17;1.35;;;1.25;;
23617;SDS011;18207;32.078;34.818;2023-04-24T05:39:48;1.05;;;1.05;;
23617;SDS011;18207;32.078;34.818;2023-04-24T05:42:18;1.10;;;1.10;;
23617;SDS011;18207;32.078;34.818;2023-04-24T05:44:48;1.08;;;1.08;;
23617;SDS011;18207;32.078;34.818;2023-04-24T05:47:23;1.10;;;1.10;;
23617;SDS011;18207;32.078;34.818;2023-04-24T05:49:53;0.90;;;0.90;;
23617;SDS011;18207;32.078;34.818;2023-04-24T05:52:24;1.05;;;1.05;;
23617;SDS011;18207;32.078;34.818;2023-04-24T05:54:56;1.13;;;1.10;;
23617;SDS011;18207;32.078;34.818;2023-04-24T05:57:25;1.77;;;1.13;;
23617;SDS011;18207;32.078;34.818;2023-04-24T05:59:55;1.15;;;1.05;;
23617;SDS011;18207;32.078;34.818;2023-04-24T06:02:25;0.95;;;0.95;;
23617;SDS011;18207;32.078;34.818;2023-04-24T06:04:59;1.33;;;1.23;;
23617;SDS011;18207;32.078;34.818;2023-04-24T06:07:30;1.00;;;1.00;;
23617;SDS011;18207;32.078;34.818;2023-04-24T06:10:03;1.00;;;1.00;;
23617;SDS011;18207;32.078;34.818;2023-04-24T06:12:34;1.27;;;1.13;;
23617;SDS011;18207;32.078;34.818;2023-04-24T06:15:05;1.30;;;1.20;;
23617;SDS011;18207;32.078;34.818;2023-04-24T06:17:36;1.40;;;1.30;;
23617;SDS011;18207;32.078;34.818;2023-04-24T06:20:07;1.27;;;1.08;;
23617;SDS011;18207;32.078;34.818;2023-04-24T06:22:38;0.98;;;0.98;;
23617;SDS011;18207;32.078;34.818;2023-04-24T06:25:11;0.85;;;0.85;;
23617;SDS011;18207;32.078;34.818;2023-04-24T06:27:41;1.35;;;1.02;;
23617;SDS011;18207;32.078;34.818;2023-04-24T06:30:11;1.00;;;0.90;;
23617;SDS011;18207;32.078;34.818;2023-04-24T06:32:41;1.10;;;1.10;;
23617;SDS011;18207;32.078;34.818;2023-04-24T06:35:12;1.13;;;1.08;;
23617;SDS011;18207;32.078;34.818;2023-04-24T06:37:42;0.70;;;0.70;;
23617;SDS011;18207;32.078;34.818;2023-04-24T06:40:14;0.80;;;0.80;;
23617;SDS011;18207;32.078;34.818;2023-04-24T06:42:45;0.73;;;0.73;;
23617;SDS011;18207;32.078;34.818;2023-04-24T06:45:15;0.85;;;0.85;;
23617;SDS011;18207;32.078;34.818;2023-04-24T06:47:45;0.63;;;0.63;;
23617;SDS011;18207;32.078;34.818;2023-04-24T06:50:16;0.70;;;0.70;;
23617;SDS011;18207;32.078;34.818;2023-04-24T06:52:46;0.80;;;0.80;;
23617;SDS011;18207;32.078;34.818;2023-04-24T06:55:17;0.77;;;0.77;;
23617;SDS011;18207;32.078;34.818;2023-04-24T06:57:47;0.73;;;0.63;;
23617;SDS011;18207;32.078;34.818;2023-04-24T07:00:18;0.70;;;0.70;;
23617;SDS011;18207;32.078;34.818;2023-04-24T07:02:51;0.55;;;0.55;;
23617;SDS011;18207;32.078;34.818;2023-04-24T07:05:21;0.73;;;0.73;;
23617;SDS011;18207;32.078;34.818;2023-04-24T07:07:51;0.88;;;0.88;;
23617;SDS011;18207;32.078;34.818;2023-04-24T07:10:23;0.75;;;0.75;;
23617;SDS011;18207;32.078;34.818;2023-04-24T07:12:55;0.85;;;0.85;;
23617;SDS011;18207;32.078;34.818;2023-04-24T07:15:25;0.55;;;0.55;;
23617;SDS011;18207;32.078;34.818;2023-04-24T07:17:55;0.80;;;0.80;;
23617;SDS011;18207;32.078;34.818;2023-04-24T07:20:27;0.65;;;0.65;;
23617;SDS011;18207;32.078;34.818;2023-04-24T07:22:57;0.70;;;0.70;;
23617;SDS011;18207;32.078;34.818;2023-04-24T07:25:29;0.80;;;0.80;;
23617;SDS011;18207;32.078;34.818;2023-04-24T07:27:59;0.80;;;0.80;;
23617;SDS011;18207;32.078;34.818;2023-04-24T07:30:31;1.02;;;1.02;;
23617;SDS011;18207;32.078;34.818;2023-04-24T07:33:01;0.90;;;0.90;;
23617;SDS011;18207;32.078;34.818;2023-04-24T07:35:31;0.95;;;0.95;;
23617;SDS011;18207;32.078;34.818;2023-04-24T07:38:03;1.00;;;1.00;;
23617;SDS011;18207;32.078;34.818;2023-04-24T07:40:35;0.80;;;0.80;;
23617;SDS011;18207;32.078;34.818;2023-04-24T07:43:05;1.23;;;1.10;;
23617;SDS011;18207;32.078;34.818;2023-04-24T07:45:35;0.88;;;0.88;;
23617;SDS011;18207;32.078;34.818;2023-04-24T07:48:08;1.13;;;1.02;;
23617;SDS011;18207;32.078;34.818;2023-04-24T07:50:38;1.40;;;1.30;;
23617;SDS011;18207;32.078;34.818;2023-04-24T07:53:08;1.52;;;1.20;;
23617;SDS011;18207;32.078;34.818;2023-04-24T07:55:41;1.02;;;1.02;;
23617;SDS011;18207;32.078;34.818;2023-04-24T07:58:11;1.40;;;1.30;;
23617;SDS011;18207;32.078;34.818;2023-04-24T08:00:42;1.15;;;1.15;;
23617;SDS011;18207;32.078;34.818;2023-04-24T08:03:11;1.08;;;1.00;;
23617;SDS011;18207;32.078;34.818;2023-04-24T08:05:45;0.70;;;0.70;;
23617;SDS011;18207;32.078;34.818;2023-04-24T08:08:19;1.30;;;1.20;;
23617;SDS011;18207;32.078;34.818;2023-04-24T08:10:53;1.23;;;1.23;;
23617;SDS011;18207;32.078;34.818;2023-04-24T08:13:23;1.00;;;1.00;;
23617;SDS011;18207;32.078;34.818;2023-04-24T08:15:53;1.17;;;1.10;;
23617;SDS011;18207;32.078;34.818;2023-04-24T08:18:25;0.85;;;0.85;;
23617;SDS011;18207;32.078;34.818;2023-04-24T08:20:55;1.70;;;1.17;;
23617;SDS011;18207;32.078;34.818;2023-04-24T08:23:28;1.17;;;1.13;;
23617;SDS011;18207;32.078;34.818;2023-04-24T08:26:00;1.00;;;1.00;;
23617;SDS011;18207;32.078;34.818;2023-04-24T08:28:30;1.00;;;1.00;;
23617;SDS011;18207;32.078;34.818;2023-04-24T08:31:00;1.08;;;1.08;;
23617;SDS011;18207;32.078;34.818;2023-04-24T08:33:30;1.20;;;1.20;;
23617;SDS011;18207;32.078;34.818;2023-04-24T08:36:01;1.23;;;1.13;;
23617;SDS011;18207;32.078;34.818;2023-04-24T08:38:33;1.35;;;1.25;;
23617;SDS011;18207;32.078;34.818;2023-04-24T08:41:05;1.20;;;1.20;;
23617;SDS011;18207;32.078;34.818;2023-04-24T08:43:37;1.38;;;1.30;;
23617;SDS011;18207;32.078;34.818;2023-04-24T08:46:09;1.17;;;1.17;;
23617;SDS011;18207;32.078;34.818;2023-04-24T08:48:42;1.52;;;1.42;;
23617;SDS011;18207;32.078;34.818;2023-04-24T08:51:13;1.25;;;1.25;;
23617;SDS011;18207;32.078;34.818;2023-04-24T08:53:43;1.52;;;1.25;;
23617;SDS011;18207;32.078;34.818;2023-04-24T08:56:17;1.30;;;1.20;;
23617;SDS011;18207;32.078;34.818;2023-04-24T08:58:48;1.13;;;1.10;;
23617;SDS011;18207;32.078;34.818;2023-04-24T09:01:20;1.10;;;1.10;;
23617;SDS011;18207;32.078;34.818;2023-04-24T09:03:53;1.08;;;0.98;;
23617;SDS011;18207;32.078;34.818;2023-04-24T09:06:25;0.70;;;0.70;;
23617;SDS011;18207;32.078;34.818;2023-04-24T09:08:55;0.82;;;0.77;;
23617;SDS011;18207;32.078;34.818;2023-04-24T09:11:31;0.70;;;0.70;;
23617;SDS011;18207;32.078;34.818;2023-04-24T09:14:01;0.95;;;0.70;;
23617;SDS011;18207;32.078;34.818;2023-04-24T09:16:32;0.50;;;0.50;;
23617;SDS011;18207;32.078;34.818;2023-04-24T09:19:02;0.60;;;0.60;;
23617;SDS011;18207;32.078;34.818;2023-04-24T09:21:33;0.63;;;0.57;;
23617;SDS011;18207;32.078;34.818;2023-04-24T09:24:05;0.80;;;0.40;;
23617;SDS011;18207;32.078;34.818;2023-04-24T09:26:45;0.70;;;0.63;;
23617;SDS011;18207;32.078;34.818;2023-04-24T09:29:16;0.45;;;0.45;;
23617;SDS011;18207;32.078;34.818;2023-04-24T09:31:47;0.50;;;0.50;;
23617;SDS011;18207;32.078;34.818;2023-04-24T09:34:20;0.40;;;0.40;;
23617;SDS011;18207;32.078;34.818;2023-04-24T09:36:53;0.60;;;0.50;;
23617;SDS011;18207;32.078;34.818;2023-04-24T09:39:23;0.70;;;0.70;;
23617;SDS011;18207;32.078;34.818;2023-04-24T09:41:55;0.45;;;0.45;;
23617;SDS011;18207;32.078;34.818;2023-04-24T09:44:27;0.40;;;0.40;;
23617;SDS011;18207;32.078;34.818;2023-04-24T09:46:59;0.60;;;0.60;;
23617;SDS011;18207;32.078;34.818;2023-04-24T09:49:29;0.40;;;0.40;;
23617;SDS011;18207;32.078;34.818;2023-04-24T09:52:03;0.55;;;0.52;;
23617;SDS011;18207;32.078;34.818;2023-04-24T09:54:34;0.47;;;0.47;;
23617;SDS011;18207;32.078;34.818;2023-04-24T09:57:07;0.60;;;0.60;;
23617;SDS011;18207;32.078;34.818;2023-04-24T09:59:41;0.50;;;0.50;;
23617;SDS011;18207;32.078;34.818;2023-04-24T10:02:18;0.50;;;0.50;;
23617;SDS011;18207;32.078;34.818;2023-04-24T10:04:53;0.50;;;0.50;;
23617;SDS011;18207;32.078;34.818;2023-04-24T10:07:27;0.52;;;0.52;;
23617;SDS011;18207;32.078;34.818;2023-04-24T10:09:56;0.50;;;0.50;;
23617;SDS011;18207;32.078;34.818;2023-04-24T10:12:30;0.28;;;0.28;;
23617;SDS011;18207;32.078;34.818;2023-04-24T10:15:00;0.40;;;0.40;;
23617;SDS011;18207;32.078;34.818;2023-04-24T10:17:32;0.40;;;0.40;;
23617;SDS011;18207;32.078;34.818;2023-04-24T10:20:04;0.60;;;0.60;;
23617;SDS011;18207;32.078;34.818;2023-04-24T10:22:36;0.43;;;0.43;;
23617;SDS011;18207;32.078;34.818;2023-04-24T10:25:07;0.35;;;0.35;;
23617;SDS011;18207;32.078;34.818;2023-04-24T10:27:40;0.55;;;0.55;;
23617;SDS011;18207;32.078;34.818;2023-04-24T10:30:11;0.40;;;0.40;;
23617;SDS011;18207;32.078;34.818;2023-04-24T10:32:43;0.40;;;0.40;;
23617;SDS011;18207;32.078;34.818;2023-04-24T10:35:17;0.40;;;0.40;;
23617;SDS011;18207;32.078;34.818;2023-04-24T10:37:50;0.47;;;0.47;;
23617;SDS011;18207;32.078;34.818;2023-04-24T10:40:26;0.55;;;0.43;;
23617;SDS011;18207;32.078;34.818;2023-04-24T10:43:03;0.20;;;0.20;;
23617;SDS011;18207;32.078;34.818;2023-04-24T10:45:36;0.28;;;0.28;;
23617;SDS011;18207;32.078;34.818;2023-04-24T10:48:07;0.30;;;0.30;;
23617;SDS011;18207;32.078;34.818;2023-04-24T10:50:44;0.40;;;0.40;;
23617;SDS011;18207;32.078;34.818;2023-04-24T10:53:17;0.30;;;0.30;;
23617;SDS011;18207;32.078;34.818;2023-04-24T10:55:50;0.22;;;0.22;;
23617;SDS011;18207;32.078;34.818;2023-04-24T10:58:37;0.47;;;0.47;;
23617;SDS011;18207;32.078;34.818;2023-04-24T11:01:23;0.38;;;0.38;;
23617;SDS011;18207;32.078;34.818;2023-04-24T11:03:55;0.40;;;0.38;;
23617;SDS011;18207;32.078;34.818;2023-04-24T11:06:30;0.43;;;0.30;;
23617;SDS011;18207;32.078;34.818;2023-04-24T11:09:03;0.30;;;0.30;;
23617;SDS011;18207;32.078;34.818;2023-04-24T11:11:35;0.57;;;0.50;;
23617;SDS011;18207;32.078;34.818;2023-04-24T11:14:10;0.40;;;0.30;;
23617;SDS011;18207;32.078;34.818;2023-04-24T11:16:43;1.65;;;0.52;;
23617;SDS011;18207;32.078;34.818;2023-04-24T11:19:21;0.40;;;0.40;;
23617;SDS011;18207;32.078;34.818;2023-04-24T11:21:57;0.50;;;0.50;;
23617;SDS011;18207;32.078;34.818;2023-04-24T11:24:29;0.13;;;0.13;;
23617;SDS011;18207;32.078;34.818;2023-04-24T11:27:11;0.22;;;0.22;;
23617;SDS011;18207;32.078;34.818;2023-04-24T11:29:46;0.57;;;0.50;;
23617;SDS011;18207;32.078;34.818;2023-04-24T11:32:25;0.50;;;0.50;;
23617;SDS011;18207;32.078;34.818;2023-04-24T11:34:58;0.55;;;0.55;;
23617;SDS011;18207;32.078;34.818;2023-04-24T11:37:33;0.30;;;0.30;;
23617;SDS011;18207;32.078;34.818;2023-04-24T11:40:06;0.50;;;0.50;;
23617;SDS011;18207;32.078;34.818;2023-04-24T11:42:39;0.50;;;0.50;;
23617;SDS011;18207;32.078;34.818;2023-04-24T11:45:13;0.30;;;0.30;;
23617;SDS011;18207;32.078;34.818;2023-04-24T11:47:47;0.38;;;0.38;;
23617;SDS011;18207;32.078;34.818;2023-04-24T11:50:18;0.40;;;0.40;;
23617;SDS011;18207;32.078;34.818;2023-04-24T11:52:54;0.50;;;0.50;;
23617;SDS011;18207;32.078;34.818;2023-04-24T11:55:27;0.40;;;0.40;;
23617;SDS011;18207;32.078;34.818;2023-04-24T11:57:58;0.30;;;0.30;;
23617;SDS011;18207;32.078;34.818;2023-04-24T12:00:30;0.50;;;0.50;;
23617;SDS011;18207;32.078;34.818;2023-04-24T12:03:05;0.38;;;0.38;;
23617;SDS011;18207;32.078;34.818;2023-04-24T12:05:37;0.50;;;0.50;;
23617;SDS011;18207;32.078;34.818;2023-04-24T12:08:08;0.60;;;0.60;;
23617;SDS011;18207;32.078;34.818;2023-04-24T12:10:38;0.52;;;0.52;;
23617;SDS011;18207;32.078;34.818;2023-04-24T12:13:09;0.50;;;0.50;;
23617;SDS011;18207;32.078;34.818;2023-04-24T12:15:41;0.38;;;0.38;;
23617;SDS011;18207;32.078;34.818;2023-04-24T12:18:12;0.60;;;0.60;;
23617;SDS011;18207;32.078;34.818;2023-04-24T12:20:48;0.60;;;0.60;;
23617;SDS011;18207;32.078;34.818;2023-04-24T12:23:33;0.50;;;0.50;;
23617;SDS011;18207;32.078;34.818;2023-04-24T12:26:04;1.60;;;0.55;;
23617;SDS011;18207;32.078;34.818;2023-04-24T12:28:34;0.50;;;0.50;;
23617;SDS011;18207;32.078;34.818;2023-04-24T12:31:07;0.50;;;0.50;;
23617;SDS011;18207;32.078;34.818;2023-04-24T12:33:38;0.40;;;0.40;;
23617;SDS011;18207;32.078;34.818;2023-04-24T12:36:09;0.45;;;0.45;;
23617;SDS011;18207;32.078;34.818;2023-04-24T12:38:43;0.40;;;0.40;;
23617;SDS011;18207;32.078;34.818;2023-04-24T12:41:13;0.40;;;0.40;;
23617;SDS011;18207;32.078;34.818;2023-04-24T12:43:51;0.60;;;0.60;;
23617;SDS011;18207;32.078;34.818;2023-04-24T12:46:24;0.47;;;0.47;;
23617;SDS011;18207;32.078;34.818;2023-04-24T12:48:54;0.40;;;0.40;;
23617;SDS011;18207;32.078;34.818;2023-04-24T12:51:25;0.70;;;0.63;;
23617;SDS011;18207;32.078;34.818;2023-04-24T12:53:55;0.60;;;0.60;;
23617;SDS011;18207;32.078;34.818;2023-04-24T12:56:26;0.40;;;0.40;;
23617;SDS011;18207;32.078;34.818;2023-04-24T12:58:57;0.47;;;0.47;;
23617;SDS011;18207;32.078;34.818;2023-04-24T13:01:29;0.30;;;0.30;;
23617;SDS011;18207;32.078;34.818;2023-04-24T13:03:59;0.50;;;0.50;;
23617;SDS011;18207;32.078;34.818;2023-04-24T13:06:30;0.50;;;0.50;;
23617;SDS011;18207;32.078;34.818;2023-04-24T13:09:00;0.40;;;0.40;;
23617;SDS011;18207;32.078;34.818;2023-04-24T13:11:30;0.30;;;0.30;;
23617;SDS011;18207;32.078;34.818;2023-04-24T13:14:00;0.60;;;0.60;;
23617;SDS011;18207;32.078;34.818;2023-04-24T13:16:31;0.60;;;0.60;;
23617;SDS011;18207;32.078;34.818;2023-04-24T13:19:01;0.57;;;0.50;;
23617;SDS011;18207;32.078;34.818;2023-04-24T13:21:32;0.60;;;0.52;;
23617;SDS011;18207;32.078;34.818;2023-04-24T13:24:02;0.43;;;0.30;;
23617;SDS011;18207;32.078;34.818;2023-04-24T13:26:34;0.45;;;0.45;;
23617;SDS011;18207;32.078;34.818;2023-04-24T13:29:04;0.55;;;0.55;;
23617;SDS011;18207;32.078;34.818;2023-04-24T13:31:36;0.55;;;0.55;;
23617;SDS011;18207;32.078;34.818;2023-04-24T13:34:07;0.50;;;0.50;;
23617;SDS011;18207;32.078;34.818;2023-04-24T13:36:37;0.40;;;0.40;;
23617;SDS011;18207;32.078;34.818;2023-04-24T13:39:07;0.30;;;0.30;;
23617;SDS011;18207;32.078;34.818;2023-04-24T13:41:38;0.82;;;0.40;;
23617;SDS011;18207;32.078;34.818;2023-04-24T13:44:08;1.15;;;0.50;;
23617;SDS011;18207;32.078;34.818;2023-04-24T13:46:40;0.30;;;0.30;;
23617;SDS011;18207;32.078;34.818;2023-04-24T13:49:11;0.57;;;0.50;;
23617;SDS011;18207;32.078;34.818;2023-04-24T13:51:43;0.35;;;0.35;;
23617;SDS011;18207;32.078;34.818;2023-04-24T13:54:14;0.32;;;0.32;;
23617;SDS011;18207;32.078;34.818;2023-04-24T13:56:44;0.40;;;0.40;;
23617;SDS011;18207;32.078;34.818;2023-04-24T13:59:14;0.50;;;0.50;;
23617;SDS011;18207;32.078;34.818;2023-04-24T14:01:46;0.40;;;0.40;;
23617;SDS011;18207;32.078;34.818;2023-04-24T14:04:16;0.40;;;0.40;;
23617;SDS011;18207;32.078;34.818;2023-04-24T14:06:46;0.30;;;0.30;;
23617;SDS011;18207;32.078;34.818;2023-04-24T14:09:17;0.40;;;0.40;;
23617;SDS011;18207;32.078;34.818;2023-04-24T14:11:47;0.47;;;0.47;;
23617;SDS011;18207;32.078;34.818;2023-04-24T14:14:17;0.20;;;0.20;;
23617;SDS011;18207;32.078;34.818;2023-04-24T14:16:50;0.38;;;0.38;;
23617;SDS011;18207;32.078;34.818;2023-04-24T14:19:20;0.38;;;0.38;;
23617;SDS011;18207;32.078;34.818;2023-04-24T14:21:50;0.40;;;0.40;;
23617;SDS011;18207;32.078;34.818;2023-04-24T14:24:22;0.43;;;0.43;;
23617;SDS011;18207;32.078;34.818;2023-04-24T14:26:52;0.50;;;0.30;;
23617;SDS011;18207;32.078;34.818;2023-04-24T14:29:23;0.70;;;0.52;;
23617;SDS011;18207;32.078;34.818;2023-04-24T14:31:54;0.30;;;0.30;;
23617;SDS011;18207;32.078;34.818;2023-04-24T14:34:24;0.30;;;0.30;;
23617;SDS011;18207;32.078;34.818;2023-04-24T14:36:55;0.40;;;0.40;;
23617;SDS011;18207;32.078;34.818;2023-04-24T14:39:25;0.30;;;0.30;;
23617;SDS011;18207;32.078;34.818;2023-04-24T14:41:57;0.40;;;0.40;;
23617;SDS011;18207;32.078;34.818;2023-04-24T14:44:27;0.43;;;0.38;;
23617;SDS011;18207;32.078;34.818;2023-04-24T14:47:00;0.30;;;0.30;;
23617;SDS011;18207;32.078;34.818;2023-04-24T14:49:30;0.52;;;0.47;;
23617;SDS011;18207;32.078;34.818;2023-04-24T14:52:01;0.50;;;0.50;;
23617;SDS011;18207;32.078;34.818;2023-04-24T14:54:31;0.35;;;0.35;;
23617;SDS011;18207;32.078;34.818;2023-04-24T14:57:00;0.40;;;0.40;;